createdAt,value
2022-10-11T00:01:52.304Z,13.48
2022-10-11T00:04:42.519Z,14.02
2022-10-11T00:07:26.514Z,12.23
2022-10-11T00:10:12.505Z,13.18
2022-10-11T00:12:55.708Z,13.52
2022-10-11T00:15:42.195Z,13.35
2022-10-11T00:18:27.735Z,13.50
2022-10-11T00:21:18.198Z,14.00
2022-10-11T00:24:02.303Z,11.35
2022-10-11T00:26:55.783Z,15.93
2022-10-11T00:29:39.879Z,15.27
2022-10-11T00:32:32.543Z,17.13
2022-10-11T00:35:28.717Z,15.73
2022-10-11T00:38:10.243Z,13.52
2022-10-11T00:40:55.677Z,21.13
2022-10-11T00:43:40.102Z,11.10
2022-10-11T00:46:29.042Z,12.57
2022-10-11T00:49:58.407Z,15.90
2022-10-11T00:52:43.682Z,13.80
2022-10-11T00:55:29.543Z,13.32
2022-10-11T00:58:20.804Z,20.13
2022-10-11T01:01:06.555Z,14.95
2022-10-11T01:03:56.143Z,16.45
2022-10-11T01:06:40.330Z,10.70
2022-10-11T01:09:24.315Z,13.30
2022-10-11T01:12:13.689Z,14.32
2022-10-11T01:15:19.402Z,12.75
2022-10-11T01:18:23.472Z,24.52
2022-10-11T01:21:12.505Z,18.33
2022-10-11T01:24:08.669Z,14.18
2022-10-11T01:27:18.793Z,19.30
2022-10-11T01:30:26.746Z,15.02
2022-10-11T01:33:12.030Z,15.63
2022-10-11T01:36:18.562Z,17.40
2022-10-11T01:39:14.810Z,16.20
2022-10-11T01:41:59.046Z,16.00
2022-10-11T01:44:52.471Z,13.88
2022-10-11T01:47:36.006Z,17.67
2022-10-11T01:50:47.416Z,12.70
2022-10-11T01:53:57.219Z,13.68
2022-10-11T02:07:10.442Z,15.35
2022-10-11T02:20:21.956Z,16.52
2022-10-11T02:34:00.118Z,12.32
2022-10-11T02:37:06.559Z,11.77
2022-10-11T02:50:15.851Z,10.60
2022-10-11T02:53:01.892Z,9.75
2022-10-11T02:55:46.046Z,12.73
2022-10-11T03:08:54.124Z,10.05
2022-10-11T03:11:45.030Z,10.32
2022-10-11T03:14:34.263Z,12.15
2022-10-11T03:17:35.536Z,7.90
2022-10-11T03:20:26.952Z,9.85
2022-10-11T03:23:10.918Z,10.00
2022-10-11T03:36:19.167Z,9.00
2022-10-11T03:49:26.786Z,9.35
2022-10-11T03:52:11.373Z,8.13
2022-10-11T03:54:56.705Z,8.50
2022-10-11T03:57:40.647Z,9.38
2022-10-11T04:00:25.765Z,8.93
2022-10-11T04:03:10.272Z,9.43
2022-10-11T04:05:54.267Z,10.13
2022-10-11T04:08:44.804Z,9.48
2022-10-11T04:11:30.327Z,8.98
2022-10-11T04:24:37.964Z,8.68
2022-10-11T04:27:24.576Z,9.10
2022-10-11T04:30:12.337Z,11.00
2022-10-11T04:33:00.178Z,9.55
2022-10-11T04:35:44.339Z,8.88
2022-10-11T04:38:27.941Z,10.98
2022-10-11T04:41:13.370Z,10.60
2022-10-11T04:43:58.249Z,10.20
2022-10-11T04:46:40.815Z,9.45
2022-10-11T04:49:25.883Z,8.20
2022-10-11T04:52:10.679Z,8.55
2022-10-11T04:55:16.421Z,8.77
2022-10-11T04:58:01.458Z,10.27
2022-10-11T05:00:46.131Z,9.23
2022-10-11T05:03:30.396Z,9.65
2022-10-11T05:06:15.150Z,9.27
2022-10-11T05:09:02.018Z,8.70
2022-10-11T05:11:45.685Z,11.23
2022-10-11T05:14:30.453Z,7.15
2022-10-11T05:17:23.867Z,8.10
2022-10-11T05:20:16.506Z,7.53
2022-10-11T05:23:01.208Z,8.65
2022-10-11T05:25:46.378Z,9.98
2022-10-11T05:28:31.249Z,7.85
2022-10-11T05:31:16.997Z,7.80
2022-10-11T05:34:02.920Z,7.00
2022-10-11T05:36:48.509Z,8.88
2022-10-11T05:39:34.731Z,6.85
2022-10-11T05:42:20.587Z,8.00
2022-10-11T05:45:06.359Z,8.25
2022-10-11T05:47:56.816Z,9.50
2022-10-11T05:50:48.872Z,7.78
2022-10-11T05:53:34.419Z,6.68
2022-10-11T05:56:26.789Z,9.13
2022-10-11T05:59:18.593Z,9.25
2022-10-11T06:02:03.300Z,6.18
2022-10-11T06:04:47.919Z,8.63
2022-10-11T06:07:49.027Z,9.05
2022-10-11T06:10:34.175Z,8.40
2022-10-11T06:13:18.283Z,7.68
2022-10-11T06:16:20.389Z,7.47
2022-10-11T06:19:41.818Z,10.07
2022-10-11T06:33:06.585Z,9.45
2022-10-11T06:36:15.280Z,8.52
2022-10-11T06:39:22.491Z,7.47
2022-10-11T06:42:45.403Z,5.47
2022-10-11T06:45:42.200Z,7.72
2022-10-11T06:48:43.199Z,9.05
2022-10-11T06:51:48.716Z,7.25
2022-10-11T06:54:46.830Z,5.10
2022-10-11T06:57:48.103Z,6.07
2022-10-11T07:01:04.775Z,6.75
2022-10-11T07:04:04.259Z,6.38
2022-10-11T07:07:00.843Z,5.72
2022-10-11T07:10:06.532Z,6.85
2022-10-11T07:13:16.296Z,6.78
2022-10-11T07:16:38.416Z,4.90
2022-10-11T07:19:50.013Z,7.95
2022-10-11T07:23:08.061Z,8.65
2022-10-11T07:26:17.368Z,6.68
2022-10-11T07:29:25.737Z,5.90
2022-10-11T07:32:26.357Z,6.75
2022-10-11T07:35:43.742Z,8.38
2022-10-11T07:38:52.363Z,7.50
2022-10-11T07:41:50.017Z,7.28
2022-10-11T07:44:51.291Z,5.38
2022-10-11T07:48:07.932Z,7.20
2022-10-11T07:51:20.231Z,5.55
2022-10-11T07:54:22.525Z,8.07
2022-10-11T07:57:26.179Z,6.93
2022-10-11T08:00:27.801Z,6.10
2022-10-11T08:03:39.887Z,5.22
2022-10-11T08:06:54.711Z,6.13
2022-10-11T08:09:51.508Z,6.25
2022-10-11T08:13:13.100Z,6.22
2022-10-11T08:16:22.463Z,5.90
2022-10-11T08:19:23.501Z,7.15
2022-10-11T08:22:26.814Z,9.43
2022-10-11T08:25:32.949Z,8.30
2022-10-11T08:28:35.738Z,7.65
2022-10-11T08:31:53.461Z,8.82
2022-10-11T08:35:02.566Z,5.35
2022-10-11T08:38:05.082Z,7.57
2022-10-11T08:41:52.519Z,6.72
2022-10-11T08:45:13.886Z,7.75
2022-10-11T08:47:50.540Z,9.13
2022-10-11T08:50:28.235Z,5.60
2022-10-11T08:53:06.736Z,11.32
2022-10-11T08:55:56.234Z,12.10
2022-10-11T08:58:33.599Z,7.55
2022-10-11T09:01:04.459Z,7.78
2022-10-11T09:03:37.922Z,8.20
2022-10-11T09:08:59.689Z,9.82
2022-10-11T09:11:54.507Z,11.88
2022-10-11T09:14:30.911Z,9.77
2022-10-11T09:17:16.307Z,6.38
2022-10-11T09:19:59.330Z,10.82
2022-10-11T09:22:52.665Z,10.30
2022-10-11T09:25:29.776Z,15.10
2022-10-11T09:28:09.366Z,13.00
2022-10-11T09:30:40.632Z,6.90
2022-10-11T09:33:23.023Z,9.88
2022-10-11T09:35:53.532Z,10.70
2022-10-11T09:39:06.713Z,11.30
2022-10-11T09:42:04.493Z,4.72
2022-10-11T09:45:02.080Z,7.32
2022-10-11T09:47:34.253Z,9.70
2022-10-11T09:50:14.023Z,6.13
2022-10-11T09:52:51.572Z,9.98
2022-10-11T09:56:10.336Z,8.88
2022-10-11T09:59:33.330Z,6.38
2022-10-11T10:02:15.694Z,6.40
2022-10-11T10:05:06.148Z,4.97
2022-10-11T10:07:37.858Z,5.18
2022-10-11T10:10:33.047Z,5.13
2022-10-11T10:13:05.439Z,6.28
2022-10-11T10:15:39.163Z,4.53
2022-10-11T10:18:15.538Z,5.00
2022-10-11T10:20:45.570Z,6.10
2022-10-11T10:23:51.859Z,5.75
2022-10-11T10:26:23.545Z,4.72
2022-10-11T10:29:11.497Z,5.55
2022-10-11T10:32:12.889Z,4.60
2022-10-11T10:34:52.483Z,5.47
2022-10-11T10:37:34.346Z,4.47
2022-10-11T10:40:08.383Z,4.50
2022-10-11T10:42:38.327Z,3.95
2022-10-11T10:45:12.573Z,5.30
2022-10-11T10:48:13.141Z,3.80
2022-10-11T10:50:55.363Z,3.42
2022-10-11T10:53:42.533Z,4.05
2022-10-11T10:56:21.235Z,5.13
2022-10-11T10:59:15.762Z,4.68
2022-10-11T11:02:01.162Z,5.10
2022-10-11T11:04:41.225Z,4.40
2022-10-11T11:07:20.533Z,3.92
2022-10-11T11:09:53.307Z,4.32
2022-10-11T11:12:23.317Z,3.97
2022-10-11T11:15:02.481Z,3.83
2022-10-11T11:17:51.609Z,3.75
2022-10-11T11:20:21.598Z,3.22
2022-10-11T11:23:05.194Z,4.03
2022-10-11T11:28:20.141Z,3.78
2022-10-11T11:31:09.755Z,3.47
2022-10-11T11:33:47.798Z,3.42
2022-10-11T11:36:26.822Z,3.08
2022-10-11T11:39:01.942Z,3.70
2022-10-11T11:41:50.127Z,3.88
2022-10-11T11:44:34.603Z,4.43
2022-10-11T11:47:13.952Z,4.60
2022-10-11T11:49:50.220Z,3.67
2022-10-11T11:52:28.685Z,3.63
2022-10-11T11:55:20.911Z,5.28
2022-10-11T11:57:51.165Z,3.55
2022-10-11T12:00:32.675Z,3.45
2022-10-11T12:03:02.632Z,3.25
2022-10-11T12:05:37.208Z,5.38
2022-10-11T12:08:30.834Z,3.35
2022-10-11T12:11:05.737Z,3.70
2022-10-11T12:13:45.798Z,2.90
2022-10-11T12:16:16.300Z,2.30
2022-10-11T12:18:58.505Z,4.75
2022-10-11T12:21:35.781Z,2.70
2022-10-11T12:24:08.569Z,3.42
2022-10-11T12:26:57.633Z,2.50
2022-10-11T12:29:29.002Z,2.90
2022-10-11T12:32:02.253Z,2.90
2022-10-11T12:34:32.322Z,2.88
2022-10-11T12:37:21.643Z,2.60
2022-10-11T12:39:59.635Z,2.53
2022-10-11T12:42:34.950Z,3.13
2022-10-11T12:45:14.812Z,3.30
2022-10-11T12:48:03.153Z,3.83
2022-10-11T12:50:50.401Z,2.65
2022-10-11T12:53:32.364Z,4.70
2022-10-11T12:56:02.721Z,6.40
2022-10-11T12:58:42.795Z,4.13
2022-10-11T13:01:18.966Z,4.57
2022-10-11T13:04:08.921Z,4.05
2022-10-11T13:06:49.833Z,5.78
2022-10-11T13:09:32.952Z,3.05
2022-10-11T13:12:26.533Z,4.00
2022-10-11T13:17:38.711Z,3.97
2022-10-11T13:20:28.870Z,4.22
2022-10-11T13:22:59.254Z,4.22
2022-10-11T13:25:38.220Z,4.95
2022-10-11T13:28:08.366Z,3.50
2022-10-11T13:30:49.413Z,4.25
2022-10-11T13:33:36.370Z,5.00
2022-10-11T13:36:08.609Z,3.08
2022-10-11T13:38:39.437Z,3.30
2022-10-11T13:41:12.613Z,4.03
2022-10-11T13:43:42.685Z,2.15
2022-10-11T13:46:21.167Z,2.97
2022-10-11T13:49:06.314Z,4.20
2022-10-11T13:51:38.424Z,4.47
2022-10-11T13:54:13.631Z,4.40
2022-10-11T13:56:52.176Z,3.88
2022-10-11T13:59:26.788Z,3.05
2022-10-11T14:01:59.999Z,3.63
2022-10-11T14:04:42.232Z,4.95
2022-10-11T14:07:39.055Z,2.53
2022-10-11T14:10:09.417Z,4.78
2022-10-11T14:12:45.412Z,4.18
2022-10-11T14:15:26.648Z,4.63
2022-10-11T14:17:56.742Z,5.00
2022-10-11T14:20:35.578Z,6.35
2022-10-11T14:23:05.588Z,3.88
2022-10-11T14:25:35.623Z,3.40
2022-10-11T14:28:06.885Z,6.03
2022-10-11T14:30:37.230Z,3.15
2022-10-11T14:33:07.389Z,5.28
2022-10-11T14:35:39.908Z,7.35
2022-10-11T14:38:12.840Z,18.60
2022-10-11T14:40:42.929Z,20.48
2022-10-11T14:43:12.959Z,20.80
2022-10-11T14:45:43.005Z,17.25
2022-10-11T14:48:12.958Z,12.57
2022-10-11T14:50:49.006Z,17.60
2022-10-11T14:53:19.103Z,16.02
2022-10-11T14:55:49.498Z,13.07
2022-10-11T14:58:19.605Z,16.73
2022-10-11T15:00:49.599Z,16.17
2022-10-11T15:03:19.682Z,8.43
2022-10-11T15:05:49.660Z,12.57
2022-10-11T15:08:20.629Z,10.93
2022-10-11T15:10:50.675Z,9.32
2022-10-11T15:13:20.861Z,7.95
2022-10-11T15:15:53.856Z,8.65
2022-10-11T15:18:23.893Z,8.93
2022-10-11T15:20:56.131Z,10.00
2022-10-11T15:23:27.054Z,10.95
2022-10-11T15:25:57.066Z,11.30
2022-10-11T15:28:33.866Z,7.03
2022-10-11T15:31:04.270Z,9.23
2022-10-11T15:33:34.309Z,12.35
2022-10-11T15:36:04.723Z,15.35
2022-10-11T15:38:35.096Z,14.88
2022-10-11T15:41:05.283Z,8.20
2022-10-11T15:43:35.316Z,9.70
2022-10-11T15:46:05.494Z,6.30
2022-10-11T15:48:35.683Z,7.22
2022-10-11T15:51:05.718Z,7.38
2022-10-11T15:53:36.458Z,11.45
2022-10-11T15:56:09.120Z,10.95
2022-10-11T15:58:41.717Z,10.88
2022-10-11T16:01:18.808Z,13.60
2022-10-11T16:03:50.095Z,7.45
2022-10-11T16:06:20.485Z,8.25
2022-10-11T16:08:51.336Z,7.78
2022-10-11T16:11:21.815Z,6.68
2022-10-11T16:13:52.767Z,10.95
2022-10-11T16:16:23.022Z,11.18
2022-10-11T16:18:53.964Z,7.38
2022-10-11T16:21:25.420Z,5.57
2022-10-11T16:23:55.640Z,11.43
2022-10-11T16:26:25.820Z,3.55
2022-10-11T16:28:57.978Z,9.27
2022-10-11T16:31:28.392Z,6.15
2022-10-11T16:33:58.993Z,6.60
2022-10-11T16:36:36.926Z,7.82
2022-10-11T16:39:19.125Z,9.40
2022-10-11T16:41:49.261Z,6.88
2022-10-11T16:44:22.597Z,5.95
2022-10-11T16:46:53.040Z,13.57
2022-10-11T16:49:25.558Z,7.07
2022-10-11T16:51:56.662Z,6.75
2022-10-11T16:54:28.365Z,8.77
2022-10-11T16:56:58.746Z,8.18
2022-10-11T16:59:34.686Z,5.97
2022-10-11T17:02:06.235Z,13.70
2022-10-11T17:04:36.495Z,8.27
2022-10-11T17:07:09.243Z,6.05
2022-10-11T17:09:44.368Z,7.63
2022-10-11T17:12:15.463Z,7.50
2022-10-11T17:14:49.942Z,5.30
2022-10-11T17:17:20.196Z,4.35
2022-10-11T17:19:50.515Z,6.30
2022-10-11T17:22:21.242Z,4.53
2022-10-11T17:24:51.584Z,7.72
2022-10-11T17:27:21.531Z,5.93
2022-10-11T17:29:51.920Z,6.15
2022-10-11T17:32:22.161Z,8.23
2022-10-11T17:34:52.539Z,5.80
2022-10-11T17:37:22.543Z,12.05
2022-10-11T17:39:52.588Z,7.45
2022-10-11T17:42:22.633Z,4.32
2022-10-11T17:44:53.493Z,9.15
2022-10-11T17:47:23.832Z,6.50
2022-10-11T17:49:54.874Z,7.20
2022-10-11T17:52:25.323Z,7.47
2022-10-11T17:54:58.690Z,4.15
2022-10-11T17:57:28.919Z,6.40
2022-10-11T17:59:58.972Z,6.00
2022-10-11T18:02:29.055Z,7.35
2022-10-11T18:04:59.233Z,4.45
2022-10-11T18:07:30.394Z,6.75
2022-10-11T18:10:00.541Z,6.28
2022-10-11T18:12:31.303Z,4.55
2022-10-11T18:15:03.048Z,4.10
2022-10-11T18:17:33.327Z,6.10
2022-10-11T18:20:04.010Z,4.85
2022-10-11T18:22:34.698Z,6.82
2022-10-11T18:25:05.035Z,5.40
2022-10-11T18:27:35.377Z,5.07
2022-10-11T18:30:08.207Z,5.30
2022-10-11T18:32:38.850Z,4.25
2022-10-11T18:35:09.337Z,6.50
2022-10-11T18:37:39.352Z,8.90
2022-10-11T18:40:10.553Z,7.40
2022-10-11T18:42:44.289Z,5.03
2022-10-11T18:45:20.411Z,6.82
2022-10-11T18:47:52.446Z,6.28
2022-10-11T18:50:23.148Z,3.47
2022-10-11T18:52:53.372Z,4.53
2022-10-11T18:55:24.308Z,4.38
2022-10-11T18:57:54.353Z,6.10
2022-10-11T19:00:44.854Z,6.05
2022-10-11T19:03:14.645Z,3.95
2022-10-11T19:05:44.985Z,6.93
2022-10-11T19:08:15.215Z,8.00
2022-10-11T19:10:46.547Z,6.95
2022-10-11T19:13:16.724Z,4.75
2022-10-11T19:15:46.826Z,6.78
2022-10-11T19:18:20.299Z,4.50
2022-10-11T19:20:51.229Z,4.05
2022-10-11T19:23:21.868Z,3.65
2022-10-11T19:25:52.324Z,5.18
2022-10-11T19:28:22.478Z,3.65
2022-10-11T19:30:53.146Z,5.60
2022-10-11T19:33:23.626Z,3.50
2022-10-11T19:35:57.930Z,6.13
2022-10-11T19:38:28.146Z,5.60
2022-10-11T19:40:58.125Z,3.88
2022-10-11T19:43:28.380Z,4.07
2022-10-11T19:46:04.281Z,5.00
2022-10-11T19:48:34.531Z,6.22
2022-10-11T19:51:09.612Z,13.82
2022-10-11T19:53:40.319Z,11.38
2022-10-11T19:56:12.609Z,3.78
2022-10-11T19:58:42.983Z,3.60
2022-10-11T20:01:23.928Z,7.32
2022-10-11T20:03:59.992Z,5.72
2022-10-11T20:06:34.578Z,3.65
2022-10-11T20:09:28.539Z,6.00
2022-10-11T20:11:59.689Z,8.25
2022-10-11T20:14:29.780Z,4.55
2022-10-11T20:16:59.975Z,5.65
2022-10-11T20:19:31.640Z,5.35
2022-10-11T20:22:02.281Z,6.45
2022-10-11T20:24:35.369Z,5.47
2022-10-11T20:27:06.527Z,5.85
2022-10-11T20:29:36.891Z,4.28
2022-10-11T20:32:06.961Z,5.32
2022-10-11T20:34:40.654Z,4.45
2022-10-11T20:37:11.052Z,3.85
2022-10-11T20:39:41.157Z,9.00
2022-10-11T20:42:11.403Z,4.63
2022-10-11T20:44:41.875Z,4.50
2022-10-11T20:47:12.164Z,3.83
2022-10-11T20:49:42.693Z,6.18
2022-10-11T20:52:12.781Z,4.32
2022-10-11T20:54:43.087Z,6.03
2022-10-11T20:57:13.331Z,4.00
2022-10-11T20:59:43.802Z,3.17
2022-10-11T21:02:18.687Z,7.43
2022-10-11T21:04:49.726Z,3.08
2022-10-11T21:07:19.761Z,4.35
2022-10-11T21:09:50.030Z,3.40
2022-10-11T21:12:20.342Z,4.30
2022-10-11T21:14:50.360Z,4.35
2022-10-11T21:17:20.703Z,3.55
2022-10-11T21:19:50.746Z,4.88
2022-10-11T21:22:22.200Z,5.45
2022-10-11T21:24:52.272Z,5.05
2022-10-11T21:27:22.444Z,4.75
2022-10-11T21:29:52.625Z,3.90
2022-10-11T21:32:22.592Z,3.50
2022-10-11T21:34:52.595Z,5.60
2022-10-11T21:37:22.505Z,4.88
2022-10-11T21:39:52.425Z,5.05
2022-10-11T21:42:25.878Z,3.00
2022-10-11T21:44:58.943Z,3.30
2022-10-11T21:47:30.751Z,2.90
2022-10-11T21:50:01.420Z,5.00
2022-10-11T21:52:32.193Z,4.00
2022-10-11T21:55:02.319Z,2.78
2022-10-11T21:57:32.249Z,3.25
2022-10-11T22:00:02.300Z,3.42
2022-10-11T22:02:42.930Z,3.53
2022-10-11T22:05:12.874Z,4.20
2022-10-11T22:07:42.834Z,3.90
2022-10-11T22:10:13.002Z,3.20
2022-10-11T22:12:42.992Z,3.75
2022-10-11T22:15:13.048Z,3.65
2022-10-11T22:17:43.126Z,3.85
2022-10-11T22:20:13.093Z,2.90
2022-10-11T22:22:43.092Z,2.70
2022-10-11T22:25:13.113Z,6.45
2022-10-11T22:27:43.121Z,4.45
2022-10-11T22:30:13.313Z,8.70
2022-10-11T22:32:43.374Z,2.83
2022-10-11T22:35:13.320Z,4.25
2022-10-11T22:37:43.397Z,4.25
2022-10-11T22:40:13.687Z,4.72
2022-10-11T22:42:43.649Z,5.03
2022-10-11T22:45:13.778Z,4.72
2022-10-11T22:47:43.876Z,8.68
2022-10-11T22:50:13.818Z,4.20
2022-10-11T22:52:44.277Z,2.88
2022-10-11T22:55:18.966Z,4.30
2022-10-11T22:57:49.859Z,4.03
2022-10-11T23:00:20.469Z,10.35
2022-10-11T23:02:51.392Z,3.50
2022-10-11T23:05:21.466Z,4.03
2022-10-11T23:07:51.429Z,4.97
2022-10-11T23:10:21.433Z,4.65
2022-10-11T23:12:51.360Z,4.40
2022-10-11T23:15:21.472Z,3.88
2022-10-11T23:17:51.526Z,3.25
2022-10-11T23:20:21.475Z,3.75
2022-10-11T23:22:51.612Z,5.70
2022-10-11T23:25:21.661Z,3.25
2022-10-11T23:27:51.618Z,4.95
2022-10-11T23:30:21.566Z,3.42
2022-10-11T23:32:51.654Z,3.22
2022-10-11T23:35:21.619Z,4.57
2022-10-11T23:37:51.846Z,4.47
2022-10-11T23:40:24.865Z,4.35
2022-10-11T23:42:58.519Z,5.07
2022-10-11T23:45:28.668Z,4.38
2022-10-11T23:47:58.702Z,5.57
2022-10-11T23:50:28.660Z,3.05
2022-10-11T23:52:58.635Z,8.45
2022-10-11T23:55:28.614Z,4.20
2022-10-11T23:57:58.559Z,7.03
